Map

Track Data

SID SEASON NUMBER BASIN SUBBASIN NAME ISO_TIME NATURE LAT LON WMO_WIND WMO_PRES WMO_AGENCY TRACK_TYPE DIST2LAND LANDFALL IFLAG USA_AGENCY USA_ATCF_ID USA_LAT USA_LON USA_RECORD USA_STATUS USA_WIND USA_PRES USA_SSHS USA_R34_NE USA_R34_SE USA_R34_SW USA_R34_NW USA_R50_NE USA_R50_SE USA_R50_SW USA_R50_NW USA_R64_NE USA_R64_SE USA_R64_SW USA_R64_NW USA_POCI USA_ROCI USA_RMW USA_EYE TOKYO_LAT TOKYO_LON TOKYO_GRADE TOKYO_WIND TOKYO_PRES TOKYO_R50_DIR TOKYO_R50_LONG TOKYO_R50_SHORT TOKYO_R30_DIR TOKYO_R30_LONG TOKYO_R30_SHORT TOKYO_LAND CMA_LAT CMA_LON CMA_CAT CMA_WIND CMA_PRES HKO_LAT HKO_LON HKO_CAT HKO_WIND HKO_PRES NEWDELHI_LAT NEWDELHI_LON NEWDELHI_GRADE NEWDELHI_WIND NEWDELHI_PRES NEWDELHI_CI NEWDELHI_DP NEWDELHI_POCI REUNION_LAT REUNION_LON REUNION_TYPE REUNION_WIND REUNION_PRES REUNION_TNUM REUNION_CI REUNION_RMW REUNION_R34_NE REUNION_R34_SE REUNION_R34_SW REUNION_R34_NW REUNION_R50_NE REUNION_R50_SE REUNION_R50_SW REUNION_R50_NW REUNION_R64_NE REUNION_R64_SE REUNION_R64_SW REUNION_R64_NW BOM_LAT BOM_LON BOM_TYPE BOM_WIND BOM_PRES BOM_TNUM BOM_CI BOM_RMW BOM_R34_NE BOM_R34_SE BOM_R34_SW BOM_R34_NW BOM_R50_NE BOM_R50_SE BOM_R50_SW BOM_R50_NW BOM_R64_NE BOM_R64_SE BOM_R64_SW BOM_R64_NW BOM_ROCI BOM_POCI BOM_EYE BOM_POS_METHOD BOM_PRES_METHOD NADI_LAT NADI_LON NADI_CAT NADI_WIND NADI_PRES WELLINGTON_LAT WELLINGTON_LON WELLINGTON_WIND WELLINGTON_PRES DS824_LAT DS824_LON DS824_STAGE DS824_WIND DS824_PRES TD9636_LAT TD9636_LON TD9636_STAGE TD9636_WIND TD9636_PRES TD9635_LAT TD9635_LON TD9635_WIND TD9635_PRES TD9635_ROCI NEUMANN_LAT NEUMANN_LON NEUMANN_CLASS NEUMANN_WIND NEUMANN_PRES MLC_LAT MLC_LON MLC_CLASS MLC_WIND MLC_PRES USA_GUST BOM_GUST BOM_GUST_PER REUNION_GUST REUNION_GUST_PER USA_SEAHGT USA_SEARAD_NE USA_SEARAD_SE USA_SEARAD_SW USA_SEARAD_NW STORM_SPEED STORM_DIR
1967085S13155 1967 25 SP EA GLENDA 1967-03-26 05:00:00 NR -12.5000 155.300 1000 bom main 514 509 ______O_______ -1 -12.5000 155.300 1000 7 66
1967085S13155 1967 25 SP EA GLENDA 1967-03-26 06:00:00 TS -12.4517 155.412 main 509 479 ______P__O__O_ -1 -12.4534 155.374 1000 -12.4000 155.400 TC 30 1000 -12.5000 155.500 TC 30 1000 5 58
1967085S13155 1967 25 SP EA GLENDA 1967-03-26 09:00:00 TS -12.3086 155.615 main 479 464 ______P__P__P_ -1 -12.3076 155.584 1000 -12.2586 155.557 TC 30 1000 -12.3601 155.720 TC 30 1000 5 46
1967085S13155 1967 25 SP EA GLENDA 1967-03-26 11:00:00 TS -12.1671 155.719 1000 bom main 464 454 ______O__PO_P_ -1 -12.2000 155.700 1000 -12.1558 155.655 TC 30 1000 -11.8000 155.600 1 -12.2568 155.847 TC 30 1000 6 25
1967085S13155 1967 25 SP EA GLENDA 1967-03-26 12:00:00 TS -12.0414 155.740 main 444 420 O_____P__OP_O_ jtwc_sh SH261967 -11.7000 155.600 -1 -12.1415 155.747 999 -12.1000 155.700 TC 30 1000 -11.7478 155.630 1 -12.2000 155.900 TC 30 1000 6 16
1967085S13155 1967 25 SP EA GLENDA 1967-03-26 15:00:00 TS -11.8109 155.828 main 420 395 P_____P__PP_P_ SH261967 -11.5375 155.703 -1 -11.9500 155.853 999 -11.9127 155.821 TC 31 999 -11.5921 155.720 1 -12.0075 156.015 TC 30 999 5 20
1967085S13155 1967 25 SP EA GLENDA 1967-03-26 18:00:00 TS -11.5982 155.906 main 395 370 O_____P__PP_O_ jtwc_sh SH261967 -11.4000 155.800 -1 -11.7438 155.932 998 -11.7067 155.933 TC 32 999 -11.4397 155.815 1 -11.8000 156.100 TC 30 999 4 23
1967085S13155 1967 25 SP EA GLENDA 1967-03-26 21:00:00 TS -11.4209 155.994 main 370 355 P_____P__PP_P_ SH261967 -11.3000 155.892 -1 -11.5349 156.020 998 -11.4973 156.053 TC 33 998 -11.2932 155.921 1 -11.6000 156.185 TC 32 998 4 30
1967085S13155 1967 25 SP EA GLENDA 1967-03-26 23:00:00 TS -11.3172 156.071 998 bom main 355 355 P_____O__PO_P_ SH261967 -11.2364 155.961 -1 -11.4000 156.100 998 -11.3635 156.147 TC 34 998 -11.2000 156.000 1 -11.4667 156.255 TC 34 998 4 38
1967085S13155 1967 25 SP EA GLENDA 1967-03-27 00:00:00 TS -11.2649 156.116 main 355 324 O_____P__OP_O_ jtwc_sh SH261967 -11.2000 156.000 -1 -11.3346 156.153 997 -11.3000 156.200 TC 35 998 -11.1550 156.042 1 -11.4000 156.300 TC 35 998 4 42
1967085S13155 1967 25 SP EA GLENDA 1967-03-27 03:00:00 TS -11.0980 156.274 main 324 294 P_____P__PP_P_ SH261967 -11.0500 156.135 -1 -11.1424 156.339 997 -11.1274 156.380 TC 35 997 -11.0254 156.179 1 -11.1925 156.478 TC 35 997 5 46
1967085S13155 1967 25 SP EA GLENDA 1967-03-27 06:00:00 TS -10.9388 156.463 main 294 274 O_____P__PP_O_ jtwc_sh SH261967 -10.9000 156.300 -1 -10.9611 156.560 997 -10.9699 156.590 TC 35 997 -10.9017 156.329 1 -11.0000 156.700 TC 35 997 5 54
1967085S13155 1967 25 SP EA GLENDA 1967-03-27 09:00:00 TS -10.8067 156.678 main 274 259 P_____P__PP_P_ SH261967 -10.8000 156.500 -1 -10.7968 156.814 997 -10.8274 156.830 TC 35 997 -10.7807 156.489 1 -10.8350 156.935 TC 35 997 5 60
1967085S13155 1967 25 SP EA GLENDA 1967-03-27 11:00:00 TS -10.7259 156.831 997 bom main 259 255 P_____O__PO_P_ SH261967 -10.7364 156.636 -1 -10.7000 157.000 997 -10.7408 157.007 TC 35 997 -10.7000 156.600 1 -10.7417 157.108 TC 35 997 5 61
1967085S13155 1967 25 SP EA GLENDA 1967-03-27 12:00:00 TS -10.6829 156.905 main 255 226 O_____P__OP_O_ jtwc_sh SH261967 -10.7000 156.700 -1 -10.6455 157.093 996 -10.7000 157.100 TC 35 997 -10.6521 156.640 1 -10.7000 157.200 TC 35 997 5 57
1967085S13155 1967 25 SP EA GLENDA 1967-03-27 15:00:00 TS -10.5395 157.121 main 226 208 P_____P__PP_P_ SH261967 -10.5500 156.850 -1 -10.4940 157.391 996 -10.5450 157.388 TC 36 996 -10.5058 156.760 1 -10.5925 157.485 TC 37 996 5 58
1967085S13155 1967 25 SP EA GLENDA 1967-03-27 18:00:00 TS -10.4088 157.355 main 206 191 O_____P__PP_O_ jtwc_sh SH261967 -10.4000 157.000 -1 -10.3750 157.716 995 -10.4099 157.705 TC 37 995 -10.3680 156.906 1 -10.5000 157.800 TC 40 995 5 64
1967085S13155 1967 25 SP EA GLENDA 1967-03-27 21:00:00 TS -10.3061 157.612 main 191 190 P_____P__PP_P_ SH261967 -10.2924 157.155 -1 -10.3074 158.062 994 -10.3199 158.045 TC 38 994 -10.2545 157.112 1 -10.3700 158.143 TC 40 994 6 72
1967085S13155 1967 25 SP EA GLENDA 1967-03-27 23:00:00 TS -10.2615 157.811 994 bom main 190 179 P_____O__PO_P_ SH261967 -10.2306 157.302 -1 -10.3000 158.300 994 -10.2973 158.280 TC 39 994 -10.2000 157.300 2 -10.3105 158.381 TC 40 994 6 79
1967085S13155 1967 25 SP EA GLENDA 1967-03-28 00:00:00 TS -10.2451 157.923 main 179 162 O_____P__OP_O_ jtwc_sh SH261967 -10.2000 157.400 -1 -10.3072 158.417 993 -10.3000 158.400 TC 40 994 -10.1637 157.423 2 -10.3000 158.500 TC 40 994 7 85
1967085S13155 1967 25 SP EA GLENDA 1967-03-28 03:00:00 TS -10.2163 158.313 main 162 126 P_____P__PP_P_ SH261967 -10.0625 157.805 -1 -10.3765 158.777 993 -10.3598 158.789 TC 41 993 -10.0741 157.861 2 -10.3624 158.842 TC 40 993 8 91
1967085S13155 1967 25 SP EA GLENDA 1967-03-28 06:00:00 TS -10.2559 158.750 main 123 94 O_____P__PP_O_ jtwc_sh SH261967 -10.0000 158.300 -1 -10.5042 159.151 992 -10.4911 159.187 TC 42 993 -10.0400 158.362 2 -10.5000 159.200 TC 40 993 9 100
1967085S13155 1967 25 SP EA GLENDA 1967-03-28 09:00:00 TS -10.3730 159.199 main 94 80 P_____P__PP_P_ SH261967 -10.0825 158.800 -1 -10.6730 159.537 992 -10.6768 159.567 TC 43 992 -10.0958 158.875 2 -10.6276 159.615 TC 42 992 9 108
1967085S13155 1967 25 SP EA GLENDA 1967-03-28 11:00:00 TS -10.4978 159.492 992 bom main 85 81 P_____O__PO_P_ SH261967 -10.2140 159.136 -1 -10.8000 159.800 992 -10.8225 159.796 TC 44 992 -10.2000 159.200 2 -10.7360 159.881 TC 44 992 9 115
1967085S13155 1967 25 SP EA GLENDA 1967-03-28 12:00:00 TS -10.5721 159.635 main 92 89 O_____P__OP_O_ jtwc_sh SH261967 -10.3000 159.300 -1 -10.8578 159.952 991 -10.9000 159.900 TC 45 992 -10.2748 159.355 2 -10.8000 160.000 TC 45 992 9 121
1967085S13155 1967 25 SP EA GLENDA 1967-03-28 14:00:00 TS -10.7343 159.897 990 bom main 100 100 P_____O__PP_P_ SH261967 -10.4854 159.624 -1 -11.0000 160.200 990 -11.0318 160.086 TC 45 991 -10.4688 159.660 2 -10.9345 160.190 TC 45 991 9 125
1967085S13155 1967 25 SP MM GLENDA 1967-03-28 15:00:00 TS -10.8314 160.010 main 112 112 P_____P__PP_P_ SH261967 -10.5975 159.780 -1 -11.0881 160.253 990 -11.1075 160.170 TC 45 991 -10.5853 159.807 2 -11.0124 160.273 TC 45 991 9 136
1967085S13155 1967 25 SP MM GLENDA 1967-03-28 17:00:00 TS -11.0575 160.212 990 bom main 141 138 P_____O__PP_P_ SH261967 -10.8557 160.070 -1 -11.3000 160.300 990 -11.2895 160.327 TC 45 990 -10.8502 160.084 2 -11.1943 160.425 TC 45 990 9 140
1967085S13155 1967 25 SP MM GLENDA 1967-03-28 18:00:00 TS -11.1853 160.313 main 147 140 O_____P__OP_O_ jtwc_sh SH261967 -11.0000 160.200 -1 -11.4159 160.367 990 -11.4000 160.400 TC 45 990 -10.9958 160.212 2 -11.3000 160.500 TC 45 990 10 145
1967085S13155 1967 25 SP MM GLENDA 1967-03-28 21:00:00 TS -11.6205 160.619 main 149 149 P_____P__PP_P_ SH261967 -11.4775 160.552 -1 -11.8121 160.637 990 -11.8174 160.635 TC 45 990 -11.4686 160.540 2 -11.6701 160.795 TC 45 990 11 149
1967085S13155 1967 25 SP MM GLENDA 1967-03-28 23:00:00 TS -11.9403 160.778 990 bom main 164 164 P_____O__PO_P_ SH261967 -11.8255 160.731 -1 -12.1000 160.800 990 -12.1375 160.757 TC 45 990 -11.8000 160.700 4 -11.9531 160.951 TC 45 990 11 156
1967085S13155 1967 25 SP MM GLENDA 1967-03-29 00:00:00 TS -12.0985 160.835 main 181 181 O_____P__OP_O_ jtwc_sh SH261967 -12.0000 160.800 -1 -12.2380 160.842 989 -12.3000 160.800 TC 45 990 -11.9531 160.766 4 -12.1000 161.000 TC 45 990 10 167
1967085S13155 1967 25 SP MM GLENDA 1967-03-29 03:00:00 TS -12.5635 160.925 main 224 224 P_____P__PP_P_ SH261967 -12.4999 160.967 -1 -12.6642 160.882 989 -12.7397 160.843 TC 46 989 -12.4346 160.893 4 -12.5425 160.995 TC 47 989 9 176
1967085S13155 1967 25 SP MM GLENDA 1967-03-29 06:00:00 TS -13.0382 160.905 main 265 265 O_____P__PP_O_ jtwc_sh SH261967 -13.0000 161.000 -1 -13.1098 160.821 988 -13.1795 160.783 TC 47 989 -12.9398 160.923 4 -13.0000 160.900 TC 50 989 10 187
1967085S13155 1967 25 SP MM GLENDA 1967-03-29 09:00:00 TS -13.5174 160.811 main 321 321 P_____P__PP_P_ SH261967 -13.5000 160.888 -1 -13.5764 160.698 988 -13.6295 160.657 TC 48 988 -13.4560 160.871 4 -13.4425 160.865 TC 50 988 10 193
1967085S13155 1967 25 SP MM GLENDA 1967-03-29 11:00:00 TS -13.8419 160.718 988 bom main 356 356 P_____O__PO_P_ SH261967 -13.8333 160.763 -1 -13.9000 160.600 988 -13.9403 160.553 TC 49 988 -13.8000 160.800 2 -13.7443 160.828 TC 50 988 10 196
1967085S13155 1967 25 SP MM GLENDA 1967-03-29 12:00:00 TS -14.0053 160.672 main 377 377 O_____P__OP_O_ jtwc_sh SH261967 -14.0000 160.700 -1 -14.0637 160.568 988 -14.1000 160.500 TC 50 988 -13.9679 160.766 2 -13.9000 160.800 TC 50 988 10 195
1967085S13155 1967 25 SP MM GLENDA 1967-03-29 15:00:00 TS -14.5045 160.542 main 437 437 P_____P__PP_P_ SH261967 -14.5000 160.565 -1 -14.5708 160.453 988 -14.5993 160.388 TC 50 988 -14.4721 160.616 2 -14.3850 160.665 TC 50 988 11 196
1967085S13155 1967 25 SP MM GLENDA 1967-03-29 18:00:00 TS -15.0153 160.378 main 494 494 O_____P__PP_O_ jtwc_sh SH261967 -15.0000 160.400 -1 -15.0971 160.308 988 -15.1199 160.252 TC 50 988 -14.9747 160.409 2 -14.9000 160.500 TC 50 988 11 199
1967085S13155 1967 25 SP MM GLENDA 1967-03-29 21:00:00 TS -15.5370 160.181 main 554 554 P_____P__PP_P_ SH261967 -15.5075 160.165 -1 -15.6364 160.133 988 -15.6556 160.090 TC 50 988 -15.4724 160.168 2 -15.4425 160.365 TC 50 988 11 201
1967085S13155 1967 25 SP MM GLENDA 1967-03-29 23:00:00 TS -15.8850 160.034 988 bom main 603 603 P_____O__PO_P_ SH261967 -15.8390 159.989 -1 -16.0000 160.000 988 -16.0179 159.967 TC 50 988 -15.8000 160.000 2 -15.8140 160.261 TC 50 988 11 203
1967085S13155 1967 25 SP EA GLENDA 1967-03-30 00:00:00 TS -16.0574 159.958 main 624 614 O_____P__OP_O_ jtwc_sh SH261967 -16.0000 159.900 -1 -16.1849 159.925 987 -16.2000 159.900 TC 50 988 -15.9592 159.920 2 -16.0000 160.200 TC 50 988 11 205
1967085S13155 1967 25 SP EA GLENDA 1967-03-30 03:00:00 TS -16.5652 159.711 main 614 599 P_____P__PP_P_ SH261967 -16.4500 159.650 -1 -16.7473 159.677 987 -16.7633 159.659 TC 50 987 -16.4305 159.666 2 -16.5500 159.965 TC 50 987 11 206
1967085S13155 1967 25 SP EA GLENDA 1967-03-30 06:00:00 TS -17.0730 159.452 main 593 588 O_____P__PP_O_ jtwc_sh SH261967 -16.9000 159.400 -1 -17.3088 159.412 986 -17.3303 159.393 TC 50 987 -16.8991 159.406 2 -17.1000 159.700 TC 50 987 11 206
1967085S13155 1967 25 SP EA GLENDA 1967-03-30 09:00:00 TS -17.5909 159.191 main 588 580 P_____P__PP_P_ SH261967 -17.3850 159.135 -1 -17.8537 159.155 986 -17.8821 159.131 TC 50 986 -17.3746 159.155 2 -17.6650 159.435 TC 52 986 11 205
1967085S13155 1967 25 SP EA GLENDA 1967-03-30 11:00:00 TS -17.9351 159.031 986 bom main 589 579 P_____O__PO_P_ SH261967 -17.7250 158.972 -1 -18.2000 159.000 986 -18.2323 158.972 TC 50 986 -17.7000 159.000 2 -18.0281 159.272 TC 54 986 11 203
1967085S13155 1967 25 SP EA GLENDA 1967-03-30 12:00:00 TS -18.1102 158.960 main 579 575 O_____P__OP_O_ jtwc_sh SH261967 -17.9000 158.900 -1 -18.3769 158.929 985 -18.4000 158.900 TC 50 986 -17.8842 158.928 2 -18.2000 159.200 TC 55 986 11 198
1967085S13155 1967 25 SP EA GLENDA 1967-03-30 15:00:00 TS -18.6378 158.783 main 577 570 P_____P__PP_P_ SH261967 -18.4574 158.742 -1 -18.8912 158.736 984 -18.9013 158.718 TC 51 985 -18.4546 158.727 2 -18.6649 159.035 TC 55 985 11 197
1967085S13155 1967 25 SP EA GLENDA 1967-03-30 18:00:00 TS -19.1402 158.633 main 580 573 O_____P__PP_O_ jtwc_sh SH261967 -19.0000 158.600 -1 -19.3639 158.576 983 -19.3622 158.575 TC 52 984 -19.0152 158.548 2 -19.1000 158.900 TC 55 984 10 197
1967085S13155 1967 25 SP EA GLENDA 1967-03-30 21:00:00 TS -19.6099 158.471 main 580 578 P_____P__PP_P_ SH261967 -19.5025 158.393 -1 -19.7732 158.455 982 -19.7670 158.469 TC 53 983 -19.5189 158.392 2 -19.5950 158.728 TC 57 983 9 198
1967085S13155 1967 25 SP EA GLENDA 1967-03-30 23:00:00 TS -19.8750 158.378 982 bom main 586 586 P_____O__PO_P_ SH261967 -19.7838 158.258 -1 -20.0000 158.400 982 4 -19.9980 158.419 TC 54 982 -19.8000 158.300 2 -19.8843 158.633 TC 59 982 8 198
1967085S13155 1967 25 SP EA GLENDA 1967-03-31 00:00:00 TS -19.9836 158.337 main 595 594 O_____P__OP_O_ jtwc_sh SH261967 -19.9000 158.200 -1 -20.0939 158.377 982 -20.1000 158.400 TC 55 982 -19.9077 158.247 2 -20.0000 158.600 TC 60 982 5 199
1967085S13155 1967 25 SP EA GLENDA 1967-03-31 03:00:00 TS -20.2139 158.255 main 594 594 P_____P__PP_P_ SH261967 -20.1375 158.077 -1 -20.3147 158.341 982 -20.3478 158.356 TC 55 982 -20.1584 158.099 2 -20.1875 158.577 TC 57 982 4 197
1967085S13155 1967 25 SP EA GLENDA 1967-03-31 06:00:00 TS -20.3727 158.213 main 604 604 O_____P__PP_O_ jtwc_sh SH261967 -20.3000 158.000 -1 -20.4730 158.344 983 -20.5269 158.348 TC 55 983 -20.3366 157.983 2 -20.3000 158.600 TC 55 983 3 192
1967085S13155 1967 25 SP EA GLENDA 1967-03-31 09:00:00 TS -20.5401 158.181 main 604 604 P_____P__PP_P_ SH261967 -20.4925 157.920 -1 -20.6064 158.373 983 -20.6674 158.366 TC 55 983 -20.4893 157.913 2 -20.4925 158.593 TC 55 983 3 190
1967085S13155 1967 25 SP EA GLENDA 1967-03-31 11:00:00 TS -20.6568 158.179 984 bom main 605 605 P_____O__PO_P_ SH261967 -20.6276 157.897 -1 -20.7000 158.400 984 -20.7548 158.388 TC 55 983 -20.6000 157.900 2 -20.6307 158.594 TC 55 983 4 174
1967085S13155 1967 25 SP EA GLENDA 1967-03-31 12:00:00 TS -20.7245 158.185 main 605 605 O_____P__OP_O_ jtwc_sh SH261967 -20.7000 157.900 -1 -20.7668 158.410 984 -20.8000 158.400 TC 55 984 -20.6803 157.903 2 -20.7000 158.600 TC 55 984 4 169
1967085S13155 1967 25 SP EA GLENDA 1967-03-31 15:00:00 TS -20.9449 158.235 main 607 598 P_____P__PP_P_ SH261967 -20.9425 157.970 -1 -20.9741 158.452 984 -20.9764 158.420 TC -20.9338 157.954 2 -20.9000 158.642 TC 55 984 5 164
1967085S13155 1967 25 SP EA GLENDA 1967-03-31 18:00:00 TS -21.1718 158.319 main 601 592 O_____P__PP_O_ jtwc_sh SH261967 -21.2000 158.100 -1 -21.1825 158.505 985 -21.1544 158.450 TC -21.1939 158.056 2 -21.1000 158.700 TC 55 985 5 160
1967085S13155 1967 25 SP EA GLENDA 1967-03-31 21:00:00 TS -21.3996 158.414 main 594 586 P_____P__PP_P_ SH261967 -21.4650 158.242 -1 -21.3801 158.562 985 -21.3349 158.493 TC -21.4452 158.195 2 -21.3075 158.750 TC 55 985 5 157
1967085S13155 1967 25 SP EA GLENDA 1967-03-31 23:00:00 TS -21.5420 158.484 986 bom main 586 586 P_____O__PO_P_ SH261967 -21.6281 158.347 -1 -21.5000 158.600 986 -21.4570 158.529 TC -21.6000 158.300 7 -21.4390 158.783 TC 55 985 5 156
1967085S13155 1967 25 SP EA GLENDA 1967-04-01 00:00:00 TS -21.6065 158.519 main 589 581 O_____P__PP_O_ jtwc_sh SH261967 -21.7000 158.400 -1 -21.5506 158.614 986 -21.5187 158.548 TC -21.6697 158.353 7 -21.5000 158.800 TC 55 986 4 150
1967085S13155 1967 25 SP EA GLENDA 1967-04-01 03:00:00 TS -21.7716 158.625 main 584 574 P_____P__PP_P_ SH261967 -21.8575 158.550 -1 -21.6952 158.658 986 -21.7068 158.617 TC -21.8626 158.531 7 -21.6500 158.843 TC 55 986 4 148
1967085S13155 1967 25 SP EA GLENDA 1967-04-01 05:00:00 TS -21.8769 158.701 986 bom main 578 578 P_____O__PP_P_ SH261967 -21.9495 158.650 -1 -21.8000 158.700 986 -21.8350 158.671 TC -21.9802 158.657 7 -21.7469 158.878 TC 55 986 4 146
1967085S13155 1967 25 SP EA GLENDA 1967-04-01 06:00:00 TS -21.9331 158.741 main 578 565 O_____P__OP_O_ jtwc_sh SH261967 -22.0000 158.700 -1 -21.8624 158.727 986 -21.9000 158.700 TC 50 986 -22.0363 158.720 7 -21.8000 158.900 TC 55 986 4 148
1967085S13155 1967 25 SP EA GLENDA 1967-04-01 09:00:00 TS -22.1283 158.871 main 565 559 P_____P__PP_P_ SH261967 -22.2000 158.857 -1 -22.0657 158.827 986 -22.1071 158.796 TC 50 986 -22.1970 158.898 7 -22.0000 158.992 TC 55 986 5 149
1967085S13155 1967 25 SP EA GLENDA 1967-04-01 11:00:00 TS -22.2580 158.957 986 bom main 564 564 P_____O__PO_P_ SH261967 -22.3364 158.956 -1 -22.2000 158.900 986 -22.2388 158.865 TC 50 986 -22.3000 159.000 7 -22.1364 159.064 TC 55 986 4 150
1967085S13155 1967 25 SP EA GLENDA 1967-04-01 12:00:00 TS -22.3191 158.995 main 564 558 O_____P__OP_O_ jtwc_sh SH261967 -22.4000 159.000 -1 -22.2601 158.933 986 -22.3000 158.900 TC 50 986 -22.3545 159.037 7 -22.2000 159.100 TC 55 986 4 150
1967085S13155 1967 25 SP EA GLENDA 1967-04-01 15:00:00 TS -22.4796 159.098 main 563 559 P_____P__PP_P_ SH261967 -22.5650 159.115 -1 -22.4262 159.033 986 -22.4510 159.000 TC 50 986 -22.5132 159.126 7 -22.3575 159.200 TC 52 986 4 150
1967085S13155 1967 25 SP EA GLENDA 1967-04-01 18:00:00 TS -22.6189 159.188 main 559 555 O_____P__PP_O_ jtwc_sh SH261967 -22.7000 159.200 -1 -22.5754 159.133 987 -22.5738 159.100 TC 50 987 -22.6644 159.194 7 -22.5000 159.300 TC 50 987 3 150
1967085S13155 1967 25 SP EA GLENDA 1967-04-01 21:00:00 TS -22.7439 159.265 main 555 555 P_____P__PP_P_ SH261967 -22.8000 159.250 -1 -22.7126 159.233 987 -22.6848 159.200 TC 50 987 -22.8083 159.255 7 -22.6575 159.400 TC 50 987 3 150
1967085S13155 1967 25 SP EA GLENDA 1967-04-01 23:00:00 TS -22.8238 159.316 988 bom main 560 560 P_____O__PO_P_ SH261967 -22.8636 159.280 -1 -22.8000 159.300 988 -22.7601 159.267 TC 50 987 -22.9000 159.300 7 -22.7557 159.467 TC 50 987 3 152
1967085S13155 1967 25 SP EA GLENDA 1967-04-02 00:00:00 TS -22.8644 159.344 main 566 557 O_____P__OP_O_ jtwc_sh SH261967 -22.9000 159.300 -1 -22.8426 159.335 988 -22.8000 159.300 TC 50 988 -22.9438 159.332 7 -22.8000 159.500 TC 50 988 3 145
1967085S13155 1967 25 SP EA GLENDA 1967-04-02 03:00:00 TS -22.9953 159.444 main 562 554 P_____P__PP_P_ SH261967 -23.0500 159.392 -1 -22.9637 159.439 988 -22.9387 159.404 TC 50 988 -23.0692 159.436 7 -22.9000 159.600 TC 50 988 3 144
1967085S13155 1967 25 SP EA GLENDA 1967-04-02 06:00:00 TS -23.1263 159.549 main 560 551 O_____P__PP_O_ jtwc_sh SH261967 -23.2000 159.500 -1 -23.0823 159.541 988 -23.0850 159.508 TC 50 988 -23.1904 159.543 7 -23.0000 159.700 TC 50 988 3 143
1967085S13155 1967 25 SP EA GLENDA 1967-04-02 09:00:00 TS -23.2505 159.652 main 556 556 P_____P__PP_P_ SH261967 -23.3000 159.608 -1 -23.2079 159.639 988 -23.2388 159.607 TC 50 988 -23.3136 159.642 7 -23.1425 159.807 TC 50 988 3 144
1967085S13155 1967 25 SP EA GLENDA 1967-04-02 11:00:00 TS -23.3367 159.715 988 bom main 556 556 P_____O__PO_P_ SH261967 -23.3636 159.672 -1 -23.3000 159.700 988 -23.3454 159.670 TC 50 988 -23.4000 159.700 7 -23.2474 159.872 TC 50 988 3 146
1967085S13155 1967 25 SP EA GLENDA 1967-04-02 12:00:00 TS -23.3812 159.743 main 562 554 O_____P__OP_O_ jtwc_sh SH261967 -23.4000 159.700 -1 -23.3467 159.733 988 -23.4000 159.700 TC 50 988 -23.4405 159.727 7 -23.3000 159.900 TC 50 988 3 152
1967085S13155 1967 25 SP EA GLENDA 1967-04-02 15:00:00 TS -23.5208 159.816 main 561 558 P_____P__PP_P_ SH261967 -23.5350 159.758 -1 -23.4958 159.830 988 -23.5516 159.802 TC 50 988 -23.5649 159.799 7 -23.4425 159.950 TC 50 988 3 157
1967085S13155 1967 25 SP EA GLENDA 1967-04-02 18:00:00 TS -23.6799 159.877 main 565 565 O_____P__PP_O_ jtwc_sh SH261967 -23.7000 159.800 -1 -23.6632 159.913 988 -23.7125 159.895 TC 50 988 -23.7035 159.854 7 -23.6000 160.000 TC 50 988 4 161
1967085S13155 1967 25 SP EA GLENDA 1967-04-02 21:00:00 TS -23.8619 159.943 main 577 569 P_____P__PP_P_ SH261967 -23.8850 159.857 -1 -23.8553 159.975 988 -23.8922 159.965 TC 50 988 -23.8688 159.889 7 -23.7850 160.115 TC 50 988 4 164
1967085S13155 1967 25 SP EA GLENDA 1967-04-02 23:00:00 TS -24.0003 159.975 988 bom main 576 576 P_____O__PO_P_ SH261967 -24.0250 159.889 -1 -24.0000 160.000 988 -24.0270 159.993 TC 50 988 -24.0000 159.900 7 -23.9250 160.181 TC 50 988 4 170
1967085S13155 1967 25 SP EA GLENDA 1967-04-03 00:00:00 TS -24.0755 159.987 main 583 583 O_____P__OP_O_ jtwc_sh SH261967 -24.1000 159.900 -1 -24.0770 160.014 988 -24.1000 160.000 TC 50 988 -24.0761 159.910 7 -24.0000 160.200 TC 50 988 5 175
1967085S13155 1967 25 SP EA GLENDA 1967-04-03 03:00:00 TS -24.3182 159.995 main 597 597 P_____P__PP_P_ SH261967 -24.3350 159.915 -1 -24.3295 160.036 988 -24.3421 160.010 TC 50 988 -24.3325 159.928 7 -24.2350 160.165 TC 50 988 5 183
1967085S13155 1967 25 SP EA GLENDA 1967-04-03 06:00:00 TS -24.5893 159.970 main 615 615 O_____P__PP_O_ jtwc_sh SH261967 -24.6000 159.900 -1 -24.6070 160.023 988 -24.6123 159.982 TC 50 988 -24.6164 159.917 7 -24.5000 160.100 TC 50 988 6 185
1967085S13155 1967 25 SP EA GLENDA 1967-04-03 09:00:00 TS -24.8839 159.938 main 643 643 P_____P__PP_P_ SH261967 -24.9000 159.880 -1 -24.9003 159.967 988 -24.9014 159.913 TC 50 988 -24.9091 159.864 7 -24.7925 160.122 TC 50 988 6 188
1967085S13155 1967 25 SP EA GLENDA 1967-04-03 11:00:00 TS -25.0839 159.889 988 bom main 654 654 P_____O__PO_P_ SH261967 -25.1031 159.836 -1 -25.1000 159.900 988 -25.1000 159.843 TC 50 988 -25.1000 159.800 7 -24.9973 160.120 TC 50 988 6 195
1967085S13155 1967 25 SP EA GLENDA 1967-04-03 12:00:00 TS -25.1795 159.853 main 654 634 O_____P__OP_O_ jtwc_sh SH261967 -25.2000 159.800 -1 -25.1942 159.858 988 -25.2000 159.800 TC 50 988 -25.1830 159.759 7 -25.1000 160.100 TC 50 988 6 206
1967085S13155 1967 25 SP EA GLENDA 1967-04-03 15:00:00 TS -25.4504 159.688 main 635 616 P_____P__PP_P_ SH261967 -25.4575 159.630 -1 -25.4814 159.694 988 -25.4808 159.643 TC 50 988 -25.4250 159.599 7 -25.4000 159.930 TC 50 988 6 213
1967085S13155 1967 25 SP EA GLENDA 1967-04-03 18:00:00 TS -25.7190 159.471 main 617 600 O_____P__PP_O_ jtwc_sh SH261967 -25.7000 159.400 -1 -25.7776 159.488 988 -25.7702 159.445 TC 50 988 -25.6661 159.395 7 -25.7000 159.700 TC 50 988 7 216
1967085S13155 1967 25 SP EA GLENDA 1967-04-03 21:00:00 TS -25.9928 159.249 main 592 584 P_____P__PP_P_ SH261967 -25.9424 159.172 -1 -26.0860 159.257 988 -26.0745 159.224 TC 50 988 -25.9188 159.163 7 -25.9924 159.507 TC 50 988 7 216
1967085S13155 1967 25 SP EA GLENDA 1967-04-03 23:00:00 TS -26.1841 159.090 988 bom main 586 573 P_____O__PO_P_ SH261967 -26.1109 158.997 -1 -26.3000 159.100 988 -26.2887 159.074 TC 50 988 -26.1000 159.000 7 -26.1943 159.372 TC 50 988 7 217
1967085S13155 1967 25 SP EA GLENDA 1967-04-04 00:00:00 TS -26.2821 159.004 main 573 533 O_____P__OP_O_ jtwc_sh SH261967 -26.2000 158.900 -1 -26.4039 159.014 988 -26.4000 159.000 TC 50 988 -26.1886 158.908 7 -26.3000 159.300 TC 50 988 8 220
1967085S13155 1967 25 SP EA GLENDA 1967-04-04 03:00:00 TS -26.5902 158.702 main 533 494 P_____P__PP_P_ SH261967 -26.4852 158.528 -1 -26.7241 158.744 988 -26.7374 158.752 TC 50 988 -26.4667 158.613 7 -26.6425 159.050 TC 50 988 8 219
1967085S13155 1967 25 SP EA GLENDA 1967-04-04 06:00:00 TS -26.9228 158.421 main 494 465 O_____P__PP_O_ jtwc_sh SH261967 -26.8000 158.200 -1 -27.0640 158.488 988 -27.0978 158.512 TC 50 988 -26.7753 158.328 7 -27.0000 158.800 TC 50 988 8 212
1967085S13155 1967 25 SP EA GLENDA 1967-04-04 09:00:00 TS -27.2653 158.220 main 463 448 P_____P__PP_P_ SH261967 -27.1049 158.033 -1 -27.4330 158.285 988 -27.4842 158.315 TC 50 988 -27.1300 158.099 7 -27.3350 158.555 TC 50 988 8 203
1967085S13155 1967 25 SP EA GLENDA 1967-04-04 11:00:00 TS -27.5223 158.143 988 bom main 448 446 P_____O__PO_P_ SH261967 -27.3521 157.997 -1 -27.7000 158.200 988 -27.7579 158.227 TC 50 988 -27.4000 158.000 7 -27.5719 158.436 TC 50 988 8 191
1967085S13155 1967 25 SP EA GLENDA 1967-04-04 12:00:00 TS -27.6668 158.127 main 445 440 O_____P__OP_O_ jtwc_sh SH261967 -27.5000 158.000 -1 -27.8390 158.178 988 -27.9000 158.200 TC 50 988 -27.5616 157.981 7 -27.7000 158.400 TC 50 988 10 0
1967085S13155 1967 25 SP EA GLENDA 1967-04-04 15:00:00 TS -28.1705 158.154 main 450 448 P_____P__PP_P_ SH261967 -28.0850 158.077 -1 -28.2827 158.177 988 -28.3465 158.193 TC 50 988 -28.0963 157.995 7 -28.1275 158.405 TC 50 988 11 174
1967085S13155 1967 25 SP EA GLENDA 1967-04-04 18:00:00 TS -28.7060 158.253 main 457 456 O_____P__PP_O_ jtwc_sh SH261967 -28.7000 158.200 -1 -28.7590 158.255 988 -28.8176 158.277 TC 50 988 -28.6596 158.087 7 -28.6000 158.500 TC 50 988 11 171
1967085S13155 1967 25 SP EA GLENDA 1967-04-04 21:00:00 TS -29.2046 158.348 main 457 457 P_____P__PP_P_ SH261967 -29.2025 158.250 -1 -29.2587 158.390 988 -29.3048 158.423 TC 50 988 -29.1918 158.215 7 -29.0925 158.578 TC 50 988 10 170
1967085S13155 1967 25 SP EA GLENDA 1967-04-04 23:00:00 TS -29.5108 158.415 988 bom main 470 470 P_____O__PO_P_ SH261967 -29.4807 158.280 -1 -29.6000 158.500 988 -29.6346 158.539 TC 50 988 -29.5000 158.300 7 -29.4307 158.653 TC 50 988 9 168
1967085S13155 1967 25 SP EA GLENDA 1967-04-05 00:00:00 TS -29.6464 158.444 main 471 471 O_____P__OP_O_ jtwc_sh SH261967 -29.6000 158.300 -1 -29.7721 158.559 988 -29.8000 158.600 TC 50 988 -29.6214 158.324 7 -29.6000 158.700 TC 50 988 8 165
1967085S13155 1967 25 SP EA GLENDA 1967-04-05 03:00:00 TS -30.0142 158.565 main 498 498 P_____P___P_P_ SH261967 -29.8800 158.400 -1 -30.2929 158.746 988 TC -29.9256 158.395 7 -30.0925 158.885 TC 50 988 7 163
1967085S13155 1967 25 SP EA GLENDA 1967-04-05 06:00:00 TS -30.3322 158.690 main 516 516 O_____P___P_O_ jtwc_sh SH261967 -30.1000 158.500 -1 -30.8185 158.947 989 TC -30.1640 158.468 7 -30.6000 159.100 TC 50 989 6 165
1967085S13155 1967 25 SP EA GLENDA 1967-04-05 09:00:00 TS -30.6144 158.753 main 533 533 P_____P___P_P_ SH261967 -30.3575 158.550 -1 -31.3470 159.157 989 TC -30.3678 158.545 7 -31.1400 159.305 TC 47 989 5 171
1967085S13155 1967 25 SP EA GLENDA 1967-04-05 11:00:00 TS -30.7269 158.748 990 bom main 525 525 P_____O___O_P_ SH261967 -30.5224 158.580 -1 -31.7000 159.300 990 TC -30.5000 158.600 7 -31.5124 159.435 TC 45 989 2 225
1967085S13155 1967 25 SP EA GLENDA 1967-04-05 12:00:00 TS -30.6764 158.678 main 525 525 O_________P_O_ jtwc_sh SH261967 -30.6000 158.600 -1 -30.5734 158.629 7 -31.7000 159.500 TC 45 990 1 210
1967085S13155 1967 25 SP EA GLENDA 1967-04-05 15:00:00 TS -30.7954 158.702 main 527 527 P_________P___ SH261967 -30.8000 158.693 -1 -30.7861 158.720 7 TC 3 161
1967085S13155 1967 25 SP EA GLENDA 1967-04-05 18:00:00 TS -30.9999 158.806 main 540 540 O_________P___ jtwc_sh SH261967 -31.0000 158.800 -1 -30.9997 158.819 7 5 159
1967085S13155 1967 25 SP EA GLENDA 1967-04-05 21:00:00 TS -31.2332 158.904 main 551 551 P_________P___ SH261967 -31.2350 158.893 -1 -31.2298 158.925 7 5 161
1967085S13155 1967 25 SP EA GLENDA 1967-04-05 23:00:00 TS -31.4055 158.974 main 560 560 P_________O___ SH261967 -31.4083 158.961 -1 -31.4000 159.000 7 6 160
1967085S13155 1967 25 SP EA GLENDA 1967-04-06 00:00:00 TS -31.4987 159.013 main 561 561 O_________P___ jtwc_sh SH261967 -31.5000 159.000 -1 -31.4962 159.038 7 6 158
1967085S13155 1967 25 SP EA GLENDA 1967-04-06 03:00:00 TS -31.7924 159.153 main 582 582 P_________P___ SH261967 -31.7850 159.150 -1 -31.8072 159.159 7 7 159
1967085S13155 1967 25 SP EA GLENDA 1967-04-06 06:00:00 TS -32.1133 159.295 main 596 596 O_________P___ jtwc_sh SH261967 -32.1000 159.300 -1 -32.1398 159.285 7 7 162
1967085S13155 1967 25 SP EA GLENDA 1967-04-06 09:00:00 TS -32.4595 159.405 main 614 614 P_________P___ SH261967 -32.4500 159.400 -1 -32.4785 159.414 7 7 165
1967085S13155 1967 25 SP EA GLENDA 1967-04-06 11:00:00 TS -32.6909 159.476 main 628 628 P_________O___ SH261967 -32.6864 159.464 -1 -32.7000 159.500 7 7 165
1967085S13155 1967 25 SP EA GLENDA 1967-04-06 12:00:00 TS -32.8031 159.517 main 631 631 O_________P___ jtwc_sh SH261967 -32.8000 159.500 -1 -32.8078 159.543 7 7 161
1967085S13155 1967 25 SP EA GLENDA 1967-04-06 15:00:00 TS -33.1162 159.653 main 659 659 P_________P___ SH261967 -33.1126 159.637 -1 -33.1198 159.669 7 7 159
1967085S13155 1967 25 SP EA GLENDA 1967-04-06 18:00:00 TS -33.4111 159.796 main 678 678 O_________P___ jtwc_sh SH261967 -33.4000 159.800 -1 -33.4184 159.793 7 6 160
1967085S13155 1967 25 SP EA GLENDA 1967-04-06 21:00:00 NR -33.7087 159.917 main 695 695 __________P___ SH261967 -1 -33.7087 159.917 7 6 161
1967085S13155 1967 25 SP MM GLENDA 1967-04-06 23:00:00 NR -33.9000 160.000 main 710 __________O___ SH261967 -1 -33.9000 160.000 7 6 161

Digital Typhoon Data and Search

About IBTrACS Database

This database is a web-friendly format of International Best Track Archive for Climate Stewardship (IBTrACS), a global best track data archive curated by NOAA dating back to 1842.

Updated: 2021-12-01